sensor_id;sensor_type;location;lat;lon;timestamp;P1;durP1;ratioP1;P2;durP2;ratioP2
76552;SDS011;65395;53.168;18.156;2023-09-12T00:00:29;18.10;;;14.00;;
76552;SDS011;65395;53.168;18.156;2023-09-12T00:03:18;19.10;;;14.00;;
76552;SDS011;65395;53.168;18.156;2023-09-12T00:05:51;17.90;;;14.20;;
76552;SDS011;65395;53.168;18.156;2023-09-12T00:08:18;19.40;;;13.70;;
76552;SDS011;65395;53.168;18.156;2023-09-12T00:10:45;16.40;;;13.40;;
76552;SDS011;65395;53.168;18.156;2023-09-12T00:13:13;18.80;;;13.70;;
76552;SDS011;65395;53.168;18.156;2023-09-12T00:15:39;25.90;;;15.10;;
76552;SDS011;65395;53.168;18.156;2023-09-12T00:18:06;19.20;;;14.40;;
76552;SDS011;65395;53.168;18.156;2023-09-12T00:20:33;22.50;;;13.60;;
76552;SDS011;65395;53.168;18.156;2023-09-12T00:23:00;24.80;;;14.00;;
76552;SDS011;65395;53.168;18.156;2023-09-12T00:25:27;29.30;;;15.10;;
76552;SDS011;65395;53.168;18.156;2023-09-12T00:27:54;25.60;;;16.20;;
76552;SDS011;65395;53.168;18.156;2023-09-12T00:30:21;22.30;;;14.80;;
76552;SDS011;65395;53.168;18.156;2023-09-12T00:32:48;18.80;;;14.10;;
76552;SDS011;65395;53.168;18.156;2023-09-12T00:35:14;19.60;;;14.80;;
76552;SDS011;65395;53.168;18.156;2023-09-12T00:37:42;23.00;;;15.60;;
76552;SDS011;65395;53.168;18.156;2023-09-12T00:40:08;20.10;;;15.00;;
76552;SDS011;65395;53.168;18.156;2023-09-12T00:42:36;20.80;;;15.20;;
76552;SDS011;65395;53.168;18.156;2023-09-12T00:45:03;24.20;;;15.80;;
76552;SDS011;65395;53.168;18.156;2023-09-12T00:47:30;21.60;;;14.90;;
76552;SDS011;65395;53.168;18.156;2023-09-12T00:49:57;21.30;;;15.60;;
76552;SDS011;65395;53.168;18.156;2023-09-12T00:52:26;23.70;;;16.50;;
76552;SDS011;65395;53.168;18.156;2023-09-12T00:54:54;28.60;;;16.30;;
76552;SDS011;65395;53.168;18.156;2023-09-12T00:57:22;24.40;;;16.80;;
76552;SDS011;65395;53.168;18.156;2023-09-12T00:59:50;22.30;;;16.40;;
76552;SDS011;65395;53.168;18.156;2023-09-12T01:02:18;24.00;;;16.50;;
76552;SDS011;65395;53.168;18.156;2023-09-12T01:04:46;23.90;;;17.30;;
76552;SDS011;65395;53.168;18.156;2023-09-12T01:07:13;24.20;;;16.70;;
76552;SDS011;65395;53.168;18.156;2023-09-12T01:09:41;22.70;;;16.70;;
76552;SDS011;65395;53.168;18.156;2023-09-12T01:12:08;23.00;;;17.40;;
76552;SDS011;65395;53.168;18.156;2023-09-12T01:14:35;26.50;;;17.20;;
76552;SDS011;65395;53.168;18.156;2023-09-12T01:17:01;26.80;;;18.60;;
76552;SDS011;65395;53.168;18.156;2023-09-12T01:19:28;22.10;;;17.00;;
76552;SDS011;65395;53.168;18.156;2023-09-12T01:22:03;24.10;;;18.00;;
76552;SDS011;65395;53.168;18.156;2023-09-12T01:24:52;26.00;;;18.10;;
76552;SDS011;65395;53.168;18.156;2023-09-12T01:27:46;23.90;;;17.60;;
76552;SDS011;65395;53.168;18.156;2023-09-12T01:30:18;23.70;;;17.90;;
76552;SDS011;65395;53.168;18.156;2023-09-12T01:32:48;24.40;;;18.00;;
76552;SDS011;65395;53.168;18.156;2023-09-12T01:35:16;27.10;;;17.90;;
76552;SDS011;65395;53.168;18.156;2023-09-12T01:37:43;24.60;;;19.00;;
76552;SDS011;65395;53.168;18.156;2023-09-12T01:40:10;25.60;;;18.90;;
76552;SDS011;65395;53.168;18.156;2023-09-12T01:42:39;24.60;;;18.40;;
76552;SDS011;65395;53.168;18.156;2023-09-12T01:45:10;27.50;;;18.60;;
76552;SDS011;65395;53.168;18.156;2023-09-12T01:47:40;23.20;;;18.40;;
76552;SDS011;65395;53.168;18.156;2023-09-12T01:50:08;27.40;;;18.90;;
76552;SDS011;65395;53.168;18.156;2023-09-12T01:52:40;32.60;;;18.70;;
76552;SDS011;65395;53.168;18.156;2023-09-12T01:55:07;69.50;;;20.20;;
76552;SDS011;65395;53.168;18.156;2023-09-12T01:57:37;41.60;;;19.30;;
76552;SDS011;65395;53.168;18.156;2023-09-12T02:00:04;25.10;;;18.10;;
76552;SDS011;65395;53.168;18.156;2023-09-12T02:02:32;29.40;;;18.90;;
76552;SDS011;65395;53.168;18.156;2023-09-12T02:05:03;25.30;;;18.10;;
76552;SDS011;65395;53.168;18.156;2023-09-12T02:07:45;29.00;;;19.10;;
76552;SDS011;65395;53.168;18.156;2023-09-12T02:10:12;32.60;;;20.10;;
76552;SDS011;65395;53.168;18.156;2023-09-12T02:12:40;28.40;;;19.90;;
76552;SDS011;65395;53.168;18.156;2023-09-12T02:15:07;26.60;;;19.00;;
76552;SDS011;65395;53.168;18.156;2023-09-12T02:17:35;29.10;;;19.40;;
76552;SDS011;65395;53.168;18.156;2023-09-12T02:20:02;25.90;;;18.90;;
76552;SDS011;65395;53.168;18.156;2023-09-12T02:22:31;29.30;;;19.50;;
76552;SDS011;65395;53.168;18.156;2023-09-12T02:24:58;27.60;;;18.80;;
76552;SDS011;65395;53.168;18.156;2023-09-12T02:27:25;27.00;;;18.70;;
76552;SDS011;65395;53.168;18.156;2023-09-12T02:29:53;30.00;;;20.20;;
76552;SDS011;65395;53.168;18.156;2023-09-12T02:32:20;32.60;;;20.80;;
76552;SDS011;65395;53.168;18.156;2023-09-12T02:34:47;30.10;;;21.10;;
76552;SDS011;65395;53.168;18.156;2023-09-12T02:37:14;28.90;;;21.60;;
76552;SDS011;65395;53.168;18.156;2023-09-12T02:39:42;27.50;;;20.30;;
76552;SDS011;65395;53.168;18.156;2023-09-12T02:42:09;28.60;;;20.30;;
76552;SDS011;65395;53.168;18.156;2023-09-12T02:44:36;32.40;;;20.80;;
76552;SDS011;65395;53.168;18.156;2023-09-12T02:47:03;31.60;;;19.80;;
76552;SDS011;65395;53.168;18.156;2023-09-12T02:49:31;34.00;;;21.90;;
76552;SDS011;65395;53.168;18.156;2023-09-12T02:51:59;30.50;;;21.30;;
76552;SDS011;65395;53.168;18.156;2023-09-12T02:54:26;31.00;;;21.20;;
76552;SDS011;65395;53.168;18.156;2023-09-12T02:56:53;29.40;;;20.90;;
76552;SDS011;65395;53.168;18.156;2023-09-12T02:59:19;27.00;;;20.30;;
76552;SDS011;65395;53.168;18.156;2023-09-12T03:01:46;28.70;;;20.10;;
76552;SDS011;65395;53.168;18.156;2023-09-12T03:04:13;28.60;;;20.70;;
76552;SDS011;65395;53.168;18.156;2023-09-12T03:06:41;29.00;;;20.20;;
76552;SDS011;65395;53.168;18.156;2023-09-12T03:09:07;29.00;;;20.30;;
76552;SDS011;65395;53.168;18.156;2023-09-12T03:11:34;29.70;;;21.50;;
76552;SDS011;65395;53.168;18.156;2023-09-12T03:14:01;27.90;;;20.70;;
76552;SDS011;65395;53.168;18.156;2023-09-12T03:16:28;33.60;;;22.30;;
76552;SDS011;65395;53.168;18.156;2023-09-12T03:18:55;31.00;;;22.10;;
76552;SDS011;65395;53.168;18.156;2023-09-12T03:21:22;33.30;;;22.80;;
76552;SDS011;65395;53.168;18.156;2023-09-12T03:23:50;35.10;;;22.70;;
76552;SDS011;65395;53.168;18.156;2023-09-12T03:26:17;29.30;;;21.00;;
76552;SDS011;65395;53.168;18.156;2023-09-12T03:28:44;34.90;;;23.00;;
76552;SDS011;65395;53.168;18.156;2023-09-12T03:31:11;30.70;;;22.40;;
76552;SDS011;65395;53.168;18.156;2023-09-12T03:33:41;35.80;;;22.50;;
76552;SDS011;65395;53.168;18.156;2023-09-12T03:36:08;32.90;;;22.40;;
76552;SDS011;65395;53.168;18.156;2023-09-12T03:38:36;37.30;;;21.40;;
76552;SDS011;65395;53.168;18.156;2023-09-12T03:41:03;30.60;;;20.60;;
76552;SDS011;65395;53.168;18.156;2023-09-12T03:43:30;34.30;;;22.10;;
76552;SDS011;65395;53.168;18.156;2023-09-12T03:45:58;33.10;;;21.10;;
76552;SDS011;65395;53.168;18.156;2023-09-12T03:48:26;48.10;;;21.80;;
76552;SDS011;65395;53.168;18.156;2023-09-12T03:50:52;75.60;;;24.10;;
76552;SDS011;65395;53.168;18.156;2023-09-12T03:53:19;61.30;;;22.20;;
76552;SDS011;65395;53.168;18.156;2023-09-12T03:55:46;62.90;;;24.20;;
76552;SDS011;65395;53.168;18.156;2023-09-12T03:58:13;51.80;;;22.40;;
76552;SDS011;65395;53.168;18.156;2023-09-12T04:00:40;34.50;;;22.00;;
76552;SDS011;65395;53.168;18.156;2023-09-12T04:03:08;39.20;;;21.50;;
76552;SDS011;65395;53.168;18.156;2023-09-12T04:05:35;41.40;;;21.50;;
76552;SDS011;65395;53.168;18.156;2023-09-12T04:08:02;45.90;;;20.90;;
76552;SDS011;65395;53.168;18.156;2023-09-12T04:10:30;43.60;;;21.90;;
76552;SDS011;65395;53.168;18.156;2023-09-12T04:12:58;58.70;;;21.80;;
76552;SDS011;65395;53.168;18.156;2023-09-12T04:15:25;45.20;;;22.50;;
76552;SDS011;65395;53.168;18.156;2023-09-12T04:17:52;40.50;;;21.30;;
76552;SDS011;65395;53.168;18.156;2023-09-12T04:20:20;38.20;;;21.50;;
76552;SDS011;65395;53.168;18.156;2023-09-12T04:22:47;38.00;;;21.40;;
76552;SDS011;65395;53.168;18.156;2023-09-12T04:25:14;37.40;;;21.80;;
76552;SDS011;65395;53.168;18.156;2023-09-12T04:27:41;40.40;;;21.60;;
76552;SDS011;65395;53.168;18.156;2023-09-12T04:30:08;42.20;;;21.60;;
76552;SDS011;65395;53.168;18.156;2023-09-12T04:32:36;42.40;;;21.70;;
76552;SDS011;65395;53.168;18.156;2023-09-12T04:35:03;71.40;;;22.90;;
76552;SDS011;65395;53.168;18.156;2023-09-12T04:37:30;37.30;;;21.40;;
76552;SDS011;65395;53.168;18.156;2023-09-12T04:39:58;39.40;;;22.00;;
76552;SDS011;65395;53.168;18.156;2023-09-12T04:42:25;46.10;;;22.40;;
76552;SDS011;65395;53.168;18.156;2023-09-12T04:44:51;33.30;;;22.10;;
76552;SDS011;65395;53.168;18.156;2023-09-12T04:47:19;41.10;;;23.00;;
76552;SDS011;65395;53.168;18.156;2023-09-12T04:49:46;47.60;;;22.20;;
76552;SDS011;65395;53.168;18.156;2023-09-12T04:52:13;39.40;;;21.60;;
76552;SDS011;65395;53.168;18.156;2023-09-12T04:54:39;44.00;;;22.20;;
76552;SDS011;65395;53.168;18.156;2023-09-12T04:57:07;61.40;;;23.80;;
76552;SDS011;65395;53.168;18.156;2023-09-12T04:59:34;49.30;;;23.50;;
76552;SDS011;65395;53.168;18.156;2023-09-12T05:02:01;35.40;;;22.40;;
76552;SDS011;65395;53.168;18.156;2023-09-12T05:04:29;45.90;;;23.50;;
76552;SDS011;65395;53.168;18.156;2023-09-12T05:06:56;40.60;;;23.20;;
76552;SDS011;65395;53.168;18.156;2023-09-12T05:09:23;38.60;;;23.90;;
76552;SDS011;65395;53.168;18.156;2023-09-12T05:11:50;38.30;;;25.40;;
76552;SDS011;65395;53.168;18.156;2023-09-12T05:14:17;60.30;;;25.90;;
76552;SDS011;65395;53.168;18.156;2023-09-12T05:16:44;68.50;;;24.90;;
76552;SDS011;65395;53.168;18.156;2023-09-12T05:19:11;72.90;;;25.60;;
76552;SDS011;65395;53.168;18.156;2023-09-12T05:21:38;68.60;;;27.10;;
76552;SDS011;65395;53.168;18.156;2023-09-12T05:24:05;76.10;;;29.40;;
76552;SDS011;65395;53.168;18.156;2023-09-12T05:26:32;64.60;;;26.60;;
76552;SDS011;65395;53.168;18.156;2023-09-12T05:28:59;59.60;;;29.80;;
76552;SDS011;65395;53.168;18.156;2023-09-12T05:31:26;65.10;;;37.00;;
76552;SDS011;65395;53.168;18.156;2023-09-12T05:33:53;63.50;;;37.30;;
76552;SDS011;65395;53.168;18.156;2023-09-12T05:36:20;70.70;;;37.80;;
76552;SDS011;65395;53.168;18.156;2023-09-12T05:38:47;82.30;;;44.50;;
76552;SDS011;65395;53.168;18.156;2023-09-12T05:41:14;70.90;;;41.40;;
76552;SDS011;65395;53.168;18.156;2023-09-12T05:43:41;74.50;;;41.60;;
76552;SDS011;65395;53.168;18.156;2023-09-12T05:46:08;67.30;;;43.30;;
76552;SDS011;65395;53.168;18.156;2023-09-12T05:48:35;67.70;;;44.10;;
76552;SDS011;65395;53.168;18.156;2023-09-12T05:51:02;71.90;;;35.40;;
76552;SDS011;65395;53.168;18.156;2023-09-12T05:53:30;57.50;;;39.40;;
76552;SDS011;65395;53.168;18.156;2023-09-12T05:55:57;65.20;;;39.50;;
76552;SDS011;65395;53.168;18.156;2023-09-12T05:58:24;59.40;;;39.50;;
76552;SDS011;65395;53.168;18.156;2023-09-12T06:00:52;58.50;;;37.90;;
76552;SDS011;65395;53.168;18.156;2023-09-12T06:03:19;57.40;;;37.60;;
76552;SDS011;65395;53.168;18.156;2023-09-12T06:05:46;57.10;;;38.50;;
76552;SDS011;65395;53.168;18.156;2023-09-12T06:08:13;59.10;;;39.00;;
76552;SDS011;65395;53.168;18.156;2023-09-12T06:10:40;57.90;;;38.10;;
76552;SDS011;65395;53.168;18.156;2023-09-12T06:13:07;59.10;;;38.50;;
76552;SDS011;65395;53.168;18.156;2023-09-12T06:15:34;57.10;;;39.40;;
76552;SDS011;65395;53.168;18.156;2023-09-12T06:18:01;58.70;;;40.20;;
76552;SDS011;65395;53.168;18.156;2023-09-12T06:20:28;60.10;;;40.60;;
76552;SDS011;65395;53.168;18.156;2023-09-12T06:22:55;58.40;;;38.60;;
76552;SDS011;65395;53.168;18.156;2023-09-12T06:25:22;54.70;;;39.00;;
76552;SDS011;65395;53.168;18.156;2023-09-12T06:27:49;56.70;;;40.50;;
76552;SDS011;65395;53.168;18.156;2023-09-12T06:30:16;57.60;;;39.00;;
76552;SDS011;65395;53.168;18.156;2023-09-12T06:32:43;56.60;;;38.60;;
76552;SDS011;65395;53.168;18.156;2023-09-12T06:35:10;58.00;;;39.20;;
76552;SDS011;65395;53.168;18.156;2023-09-12T06:37:37;53.80;;;36.20;;
76552;SDS011;65395;53.168;18.156;2023-09-12T06:40:06;59.10;;;35.90;;
76552;SDS011;65395;53.168;18.156;2023-09-12T06:42:34;54.30;;;36.90;;
76552;SDS011;65395;53.168;18.156;2023-09-12T06:45:01;49.70;;;35.60;;
76552;SDS011;65395;53.168;18.156;2023-09-12T06:47:28;47.80;;;36.00;;
76552;SDS011;65395;53.168;18.156;2023-09-12T06:49:55;54.60;;;36.60;;
76552;SDS011;65395;53.168;18.156;2023-09-12T06:52:22;53.70;;;35.70;;
76552;SDS011;65395;53.168;18.156;2023-09-12T06:54:48;46.70;;;34.30;;
76552;SDS011;65395;53.168;18.156;2023-09-12T06:57:15;48.10;;;34.20;;
76552;SDS011;65395;53.168;18.156;2023-09-12T06:59:42;49.30;;;32.80;;
76552;SDS011;65395;53.168;18.156;2023-09-12T07:02:10;51.10;;;31.70;;
76552;SDS011;65395;53.168;18.156;2023-09-12T07:04:39;48.50;;;31.00;;
76552;SDS011;65395;53.168;18.156;2023-09-12T07:07:06;49.50;;;32.00;;
76552;SDS011;65395;53.168;18.156;2023-09-12T07:09:33;55.30;;;30.20;;
76552;SDS011;65395;53.168;18.156;2023-09-12T07:12:00;47.60;;;29.30;;
76552;SDS011;65395;53.168;18.156;2023-09-12T07:14:27;47.60;;;27.70;;
76552;SDS011;65395;53.168;18.156;2023-09-12T07:16:54;47.30;;;28.70;;
76552;SDS011;65395;53.168;18.156;2023-09-12T07:19:20;45.50;;;27.10;;
76552;SDS011;65395;53.168;18.156;2023-09-12T07:21:47;46.00;;;27.00;;
76552;SDS011;65395;53.168;18.156;2023-09-12T07:24:14;41.80;;;26.00;;
76552;SDS011;65395;53.168;18.156;2023-09-12T07:26:41;44.70;;;27.10;;
76552;SDS011;65395;53.168;18.156;2023-09-12T07:29:08;48.50;;;25.90;;
76552;SDS011;65395;53.168;18.156;2023-09-12T07:31:35;41.90;;;25.40;;
76552;SDS011;65395;53.168;18.156;2023-09-12T07:34:02;40.60;;;24.50;;
76552;SDS011;65395;53.168;18.156;2023-09-12T07:36:29;40.20;;;25.50;;
76552;SDS011;65395;53.168;18.156;2023-09-12T07:38:56;41.70;;;24.80;;
76552;SDS011;65395;53.168;18.156;2023-09-12T07:41:23;42.70;;;24.90;;
76552;SDS011;65395;53.168;18.156;2023-09-12T07:43:50;36.80;;;25.20;;
76552;SDS011;65395;53.168;18.156;2023-09-12T07:46:17;39.40;;;25.90;;
76552;SDS011;65395;53.168;18.156;2023-09-12T07:48:44;41.60;;;24.80;;
76552;SDS011;65395;53.168;18.156;2023-09-12T07:51:13;40.40;;;25.00;;
76552;SDS011;65395;53.168;18.156;2023-09-12T07:53:41;38.40;;;24.50;;
76552;SDS011;65395;53.168;18.156;2023-09-12T07:56:08;37.00;;;23.90;;
76552;SDS011;65395;53.168;18.156;2023-09-12T07:58:36;42.60;;;23.50;;
76552;SDS011;65395;53.168;18.156;2023-09-12T08:01:05;37.10;;;24.60;;
76552;SDS011;65395;53.168;18.156;2023-09-12T08:03:33;37.00;;;24.00;;
76552;SDS011;65395;53.168;18.156;2023-09-12T08:06:01;35.30;;;23.30;;
76552;SDS011;65395;53.168;18.156;2023-09-12T08:08:29;34.00;;;23.20;;
76552;SDS011;65395;53.168;18.156;2023-09-12T08:10:57;33.30;;;22.80;;
76552;SDS011;65395;53.168;18.156;2023-09-12T08:13:25;32.30;;;22.10;;
76552;SDS011;65395;53.168;18.156;2023-09-12T08:15:54;34.10;;;22.20;;
76552;SDS011;65395;53.168;18.156;2023-09-12T08:18:22;30.70;;;21.10;;
76552;SDS011;65395;53.168;18.156;2023-09-12T08:20:54;34.20;;;21.40;;
76552;SDS011;65395;53.168;18.156;2023-09-12T08:23:21;34.30;;;21.50;;
76552;SDS011;65395;53.168;18.156;2023-09-12T08:25:48;34.90;;;20.70;;
76552;SDS011;65395;53.168;18.156;2023-09-12T08:28:15;32.40;;;19.20;;
76552;SDS011;65395;53.168;18.156;2023-09-12T08:30:43;27.20;;;19.30;;
76552;SDS011;65395;53.168;18.156;2023-09-12T08:33:12;33.70;;;19.30;;
76552;SDS011;65395;53.168;18.156;2023-09-12T08:35:39;27.60;;;18.80;;
76552;SDS011;65395;53.168;18.156;2023-09-12T08:38:06;30.60;;;19.50;;
76552;SDS011;65395;53.168;18.156;2023-09-12T08:40:33;27.40;;;18.50;;
76552;SDS011;65395;53.168;18.156;2023-09-12T08:43:01;31.10;;;16.60;;
76552;SDS011;65395;53.168;18.156;2023-09-12T08:45:32;25.90;;;16.40;;
76552;SDS011;65395;53.168;18.156;2023-09-12T08:48:00;26.30;;;15.90;;
76552;SDS011;65395;53.168;18.156;2023-09-12T08:50:27;30.60;;;15.50;;
76552;SDS011;65395;53.168;18.156;2023-09-12T08:52:59;25.80;;;15.70;;
76552;SDS011;65395;53.168;18.156;2023-09-12T08:55:26;29.40;;;15.80;;
76552;SDS011;65395;53.168;18.156;2023-09-12T08:57:53;26.40;;;13.60;;
76552;SDS011;65395;53.168;18.156;2023-09-12T09:00:22;26.90;;;13.60;;
76552;SDS011;65395;53.168;18.156;2023-09-12T09:02:51;23.50;;;14.40;;
76552;SDS011;65395;53.168;18.156;2023-09-12T09:05:20;21.70;;;14.20;;
76552;SDS011;65395;53.168;18.156;2023-09-12T09:07:48;21.90;;;12.40;;
76552;SDS011;65395;53.168;18.156;2023-09-12T09:10:17;21.50;;;13.70;;
76552;SDS011;65395;53.168;18.156;2023-09-12T09:12:45;29.30;;;13.20;;
76552;SDS011;65395;53.168;18.156;2023-09-12T09:17:53;22.90;;;13.10;;
76552;SDS011;65395;53.168;18.156;2023-09-12T09:20:23;24.50;;;12.40;;
76552;SDS011;65395;53.168;18.156;2023-09-12T09:23:02;19.00;;;11.30;;
76552;SDS011;65395;53.168;18.156;2023-09-12T09:25:32;17.50;;;10.80;;
76552;SDS011;65395;53.168;18.156;2023-09-12T09:28:03;23.30;;;11.30;;
76552;SDS011;65395;53.168;18.156;2023-09-12T09:30:39;22.60;;;11.70;;
76552;SDS011;65395;53.168;18.156;2023-09-12T09:33:08;18.70;;;11.60;;
76552;SDS011;65395;53.168;18.156;2023-09-12T09:35:36;16.60;;;10.20;;
76552;SDS011;65395;53.168;18.156;2023-09-12T09:38:03;13.40;;;9.60;;
76552;SDS011;65395;53.168;18.156;2023-09-12T09:40:33;11.90;;;9.90;;
76552;SDS011;65395;53.168;18.156;2023-09-12T09:43:01;15.30;;;10.60;;
76552;SDS011;65395;53.168;18.156;2023-09-12T09:45:29;20.60;;;10.20;;
76552;SDS011;65395;53.168;18.156;2023-09-12T09:47:58;16.50;;;10.40;;
76552;SDS011;65395;53.168;18.156;2023-09-12T09:50:33;17.50;;;10.80;;
76552;SDS011;65395;53.168;18.156;2023-09-12T09:53:04;15.30;;;10.60;;
76552;SDS011;65395;53.168;18.156;2023-09-12T09:55:34;12.70;;;10.20;;
76552;SDS011;65395;53.168;18.156;2023-09-12T09:58:02;14.10;;;9.90;;
76552;SDS011;65395;53.168;18.156;2023-09-12T10:00:34;16.50;;;10.30;;
76552;SDS011;65395;53.168;18.156;2023-09-12T10:03:04;12.00;;;9.40;;
76552;SDS011;65395;53.168;18.156;2023-09-12T10:05:33;14.20;;;9.90;;
76552;SDS011;65395;53.168;18.156;2023-09-12T10:08:03;13.70;;;9.10;;
76552;SDS011;65395;53.168;18.156;2023-09-12T10:10:37;15.30;;;9.20;;
76552;SDS011;65395;53.168;18.156;2023-09-12T10:13:04;9.20;;;8.20;;
76552;SDS011;65395;53.168;18.156;2023-09-12T10:15:33;10.90;;;8.70;;
76552;SDS011;65395;53.168;18.156;2023-09-12T10:18:04;10.40;;;9.30;;
76552;SDS011;65395;53.168;18.156;2023-09-12T10:20:37;12.90;;;8.60;;
76552;SDS011;65395;53.168;18.156;2023-09-12T10:23:12;11.50;;;8.80;;
76552;SDS011;65395;53.168;18.156;2023-09-12T10:25:45;15.40;;;8.60;;
76552;SDS011;65395;53.168;18.156;2023-09-12T10:28:15;11.20;;;8.50;;
76552;SDS011;65395;53.168;18.156;2023-09-12T10:30:45;10.00;;;8.50;;
76552;SDS011;65395;53.168;18.156;2023-09-12T10:33:13;13.60;;;8.10;;
76552;SDS011;65395;53.168;18.156;2023-09-12T10:35:41;21.30;;;9.40;;
76552;SDS011;65395;53.168;18.156;2023-09-12T10:38:11;13.60;;;8.70;;
76552;SDS011;65395;53.168;18.156;2023-09-12T10:40:43;14.80;;;9.50;;
76552;SDS011;65395;53.168;18.156;2023-09-12T10:43:13;14.60;;;8.90;;
76552;SDS011;65395;53.168;18.156;2023-09-12T10:45:41;23.30;;;9.00;;
76552;SDS011;65395;53.168;18.156;2023-09-12T10:48:09;12.80;;;8.70;;
76552;SDS011;65395;53.168;18.156;2023-09-12T10:50:38;14.80;;;9.10;;
76552;SDS011;65395;53.168;18.156;2023-09-12T10:53:13;14.00;;;9.00;;
76552;SDS011;65395;53.168;18.156;2023-09-12T10:55:41;13.90;;;9.40;;
76552;SDS011;65395;53.168;18.156;2023-09-12T10:58:24;14.40;;;10.00;;
76552;SDS011;65395;53.168;18.156;2023-09-12T11:03:39;14.60;;;9.30;;
76552;SDS011;65395;53.168;18.156;2023-09-12T11:06:06;14.90;;;9.30;;
76552;SDS011;65395;53.168;18.156;2023-09-12T11:09:15;18.50;;;9.70;;
76552;SDS011;65395;53.168;18.156;2023-09-12T11:11:46;14.90;;;9.50;;
76552;SDS011;65395;53.168;18.156;2023-09-12T11:14:14;18.00;;;9.10;;
76552;SDS011;65395;53.168;18.156;2023-09-12T11:16:42;12.70;;;9.70;;
76552;SDS011;65395;53.168;18.156;2023-09-12T11:21:53;12.30;;;9.20;;
76552;SDS011;65395;53.168;18.156;2023-09-12T11:24:21;16.90;;;9.70;;
76552;SDS011;65395;53.168;18.156;2023-09-12T11:26:52;12.50;;;9.70;;
76552;SDS011;65395;53.168;18.156;2023-09-12T11:29:20;12.20;;;9.40;;
76552;SDS011;65395;53.168;18.156;2023-09-12T11:31:56;13.00;;;9.30;;
76552;SDS011;65395;53.168;18.156;2023-09-12T11:34:26;18.20;;;9.70;;
76552;SDS011;65395;53.168;18.156;2023-09-12T11:36:55;13.50;;;8.70;;
76552;SDS011;65395;53.168;18.156;2023-09-12T11:39:25;20.30;;;9.50;;
76552;SDS011;65395;53.168;18.156;2023-09-12T11:41:57;14.80;;;9.50;;
76552;SDS011;65395;53.168;18.156;2023-09-12T11:44:24;12.90;;;9.50;;
76552;SDS011;65395;53.168;18.156;2023-09-12T11:46:53;13.60;;;9.60;;
76552;SDS011;65395;53.168;18.156;2023-09-12T11:49:21;11.70;;;9.10;;
76552;SDS011;65395;53.168;18.156;2023-09-12T11:51:49;13.80;;;9.50;;
76552;SDS011;65395;53.168;18.156;2023-09-12T11:54:24;13.70;;;9.00;;
76552;SDS011;65395;53.168;18.156;2023-09-12T11:56:52;11.30;;;8.80;;
76552;SDS011;65395;53.168;18.156;2023-09-12T11:59:23;22.00;;;9.80;;
76552;SDS011;65395;53.168;18.156;2023-09-12T12:01:50;12.00;;;8.50;;
76552;SDS011;65395;53.168;18.156;2023-09-12T12:04:20;9.50;;;8.20;;
76552;SDS011;65395;53.168;18.156;2023-09-12T12:06:49;10.30;;;8.50;;
76552;SDS011;65395;53.168;18.156;2023-09-12T12:09:17;10.00;;;8.30;;
76552;SDS011;65395;53.168;18.156;2023-09-12T12:11:46;15.40;;;8.70;;
76552;SDS011;65395;53.168;18.156;2023-09-12T12:14:14;10.70;;;8.90;;
76552;SDS011;65395;53.168;18.156;2023-09-12T12:16:43;9.20;;;8.10;;
76552;SDS011;65395;53.168;18.156;2023-09-12T12:19:11;12.10;;;7.80;;
76552;SDS011;65395;53.168;18.156;2023-09-12T12:21:39;14.10;;;8.20;;
76552;SDS011;65395;53.168;18.156;2023-09-12T12:24:07;11.80;;;8.10;;
76552;SDS011;65395;53.168;18.156;2023-09-12T12:26:37;14.10;;;8.60;;
76552;SDS011;65395;53.168;18.156;2023-09-12T12:29:04;10.50;;;8.80;;
76552;SDS011;65395;53.168;18.156;2023-09-12T12:31:31;10.50;;;8.30;;
76552;SDS011;65395;53.168;18.156;2023-09-12T12:33:58;13.30;;;7.90;;
76552;SDS011;65395;53.168;18.156;2023-09-12T12:36:26;10.20;;;7.90;;
76552;SDS011;65395;53.168;18.156;2023-09-12T12:38:53;12.30;;;8.40;;
76552;SDS011;65395;53.168;18.156;2023-09-12T12:41:22;10.10;;;7.90;;
76552;SDS011;65395;53.168;18.156;2023-09-12T12:43:50;8.50;;;7.30;;
76552;SDS011;65395;53.168;18.156;2023-09-12T12:46:18;13.30;;;8.90;;
76552;SDS011;65395;53.168;18.156;2023-09-12T12:48:48;10.90;;;8.20;;
76552;SDS011;65395;53.168;18.156;2023-09-12T12:51:19;10.00;;;8.20;;
76552;SDS011;65395;53.168;18.156;2023-09-12T12:53:49;11.20;;;8.10;;
76552;SDS011;65395;53.168;18.156;2023-09-12T12:56:18;10.50;;;7.70;;
76552;SDS011;65395;53.168;18.156;2023-09-12T12:58:48;12.60;;;7.40;;
76552;SDS011;65395;53.168;18.156;2023-09-12T13:01:16;20.00;;;8.50;;
76552;SDS011;65395;53.168;18.156;2023-09-12T13:03:44;20.70;;;8.90;;
76552;SDS011;65395;53.168;18.156;2023-09-12T13:06:11;13.00;;;9.00;;
76552;SDS011;65395;53.168;18.156;2023-09-12T13:08:41;17.40;;;8.90;;
76552;SDS011;65395;53.168;18.156;2023-09-12T13:11:09;29.30;;;9.20;;
76552;SDS011;65395;53.168;18.156;2023-09-12T13:13:37;15.70;;;8.60;;
76552;SDS011;65395;53.168;18.156;2023-09-12T13:16:05;13.10;;;8.60;;
76552;SDS011;65395;53.168;18.156;2023-09-12T13:18:32;12.90;;;8.50;;
76552;SDS011;65395;53.168;18.156;2023-09-12T13:20:59;11.00;;;9.10;;
76552;SDS011;65395;53.168;18.156;2023-09-12T13:23:27;19.30;;;9.30;;
76552;SDS011;65395;53.168;18.156;2023-09-12T13:25:55;15.90;;;8.80;;
76552;SDS011;65395;53.168;18.156;2023-09-12T13:28:23;16.00;;;8.50;;
76552;SDS011;65395;53.168;18.156;2023-09-12T13:30:52;13.00;;;8.50;;
76552;SDS011;65395;53.168;18.156;2023-09-12T13:33:19;10.20;;;8.30;;
76552;SDS011;65395;53.168;18.156;2023-09-12T13:35:48;12.80;;;8.20;;
76552;SDS011;65395;53.168;18.156;2023-09-12T13:38:16;11.90;;;8.10;;
76552;SDS011;65395;53.168;18.156;2023-09-12T13:40:45;14.30;;;8.30;;
76552;SDS011;65395;53.168;18.156;2023-09-12T13:43:13;11.50;;;8.70;;
76552;SDS011;65395;53.168;18.156;2023-09-12T13:45:40;11.10;;;8.90;;
76552;SDS011;65395;53.168;18.156;2023-09-12T13:48:08;10.10;;;7.70;;
76552;SDS011;65395;53.168;18.156;2023-09-12T13:50:35;9.20;;;6.90;;
76552;SDS011;65395;53.168;18.156;2023-09-12T13:53:02;8.00;;;7.20;;
76552;SDS011;65395;53.168;18.156;2023-09-12T13:55:33;8.70;;;6.90;;
76552;SDS011;65395;53.168;18.156;2023-09-12T13:58:02;8.90;;;7.20;;
76552;SDS011;65395;53.168;18.156;2023-09-12T14:00:30;11.20;;;7.10;;
76552;SDS011;65395;53.168;18.156;2023-09-12T14:02:58;7.50;;;6.80;;
76552;SDS011;65395;53.168;18.156;2023-09-12T14:05:25;9.50;;;7.50;;
76552;SDS011;65395;53.168;18.156;2023-09-12T14:07:52;9.30;;;6.80;;
76552;SDS011;65395;53.168;18.156;2023-09-12T14:10:19;42.10;;;8.90;;
76552;SDS011;65395;53.168;18.156;2023-09-12T14:12:46;12.70;;;7.60;;
76552;SDS011;65395;53.168;18.156;2023-09-12T14:15:13;15.00;;;8.00;;
76552;SDS011;65395;53.168;18.156;2023-09-12T14:17:41;10.20;;;7.50;;
76552;SDS011;65395;53.168;18.156;2023-09-12T14:20:09;8.70;;;6.90;;
76552;SDS011;65395;53.168;18.156;2023-09-12T14:22:36;7.30;;;6.60;;
76552;SDS011;65395;53.168;18.156;2023-09-12T14:25:03;11.00;;;7.00;;
76552;SDS011;65395;53.168;18.156;2023-09-12T14:27:31;10.30;;;7.00;;